sensor_id;sensor_type;location;lat;lon;timestamp;pressure;altitude;pressure_sealevel;temperature;humidity
16461;BME280;8341;42.048;24.650;2023-10-31T00:00:02;97431.53;;;15.83;75.71
16461;BME280;8341;42.048;24.650;2023-10-31T00:02:30;97432.53;;;15.80;75.24
16461;BME280;8341;42.048;24.650;2023-10-31T00:04:58;97425.06;;;15.75;75.31
16461;BME280;8341;42.048;24.650;2023-10-31T00:07:25;97422.56;;;15.65;76.79
16461;BME280;8341;42.048;24.650;2023-10-31T00:09:51;97423.56;;;15.57;76.89
16461;BME280;8341;42.048;24.650;2023-10-31T00:12:18;97419.56;;;15.52;76.81
16461;BME280;8341;42.048;24.650;2023-10-31T00:14:45;97424.03;;;15.44;79.21
16461;BME280;8341;42.048;24.650;2023-10-31T00:17:12;97420.28;;;15.36;80.29
16461;BME280;8341;42.048;24.650;2023-10-31T00:19:38;97426.03;;;15.38;80.14
16461;BME280;8341;42.048;24.650;2023-10-31T00:22:06;97419.31;;;15.39;79.15
16461;BME280;8341;42.048;24.650;2023-10-31T00:24:33;97414.59;;;15.45;77.28
16461;BME280;8341;42.048;24.650;2023-10-31T00:27:00;97416.31;;;15.43;76.66
16461;BME280;8341;42.048;24.650;2023-10-31T00:29:26;97418.06;;;15.51;74.45
16461;BME280;8341;42.048;24.650;2023-10-31T00:31:53;97408.31;;;15.45;73.98
16461;BME280;8341;42.048;24.650;2023-10-31T00:34:20;97410.09;;;15.48;72.44
16461;BME280;8341;42.048;24.650;2023-10-31T00:36:47;97411.09;;;15.50;71.79
16461;BME280;8341;42.048;24.650;2023-10-31T00:39:15;97410.09;;;15.48;71.67
16461;BME280;8341;42.048;24.650;2023-10-31T00:41:44;97408.59;;;15.52;70.79
16461;BME280;8341;42.048;24.650;2023-10-31T00:44:11;97402.09;;;15.55;69.95
16461;BME280;8341;42.048;24.650;2023-10-31T00:46:38;97409.09;;;15.45;69.98
16461;BME280;8341;42.048;24.650;2023-10-31T00:49:05;97403.31;;;15.43;71.48
16461;BME280;8341;42.048;24.650;2023-10-31T00:51:32;97399.06;;;15.42;70.99
16461;BME280;8341;42.048;24.650;2023-10-31T00:53:59;97398.81;;;15.46;70.93
16461;BME280;8341;42.048;24.650;2023-10-31T00:56:27;97397.59;;;15.52;72.29
16461;BME280;8341;42.048;24.650;2023-10-31T00:58:53;97380.81;;;15.39;74.78
16461;BME280;8341;42.048;24.650;2023-10-31T01:01:20;97386.81;;;15.43;73.91
16461;BME280;8341;42.048;24.650;2023-10-31T01:03:47;97394.34;;;15.48;73.64
16461;BME280;8341;42.048;24.650;2023-10-31T01:06:14;97395.06;;;15.43;73.68
16461;BME280;8341;42.048;24.650;2023-10-31T01:08:40;97390.34;;;15.49;73.24
16461;BME280;8341;42.048;24.650;2023-10-31T01:11:07;97391.34;;;15.35;71.59
16461;BME280;8341;42.048;24.650;2023-10-31T01:13:35;97383.56;;;15.28;70.52
16461;BME280;8341;42.048;24.650;2023-10-31T01:16:02;97387.06;;;15.34;69.45
16461;BME280;8341;42.048;24.650;2023-10-31T01:18:29;97396.81;;;15.41;68.82
16461;BME280;8341;42.048;24.650;2023-10-31T01:20:55;97390.81;;;15.37;68.63
16461;BME280;8341;42.048;24.650;2023-10-31T01:23:22;97388.84;;;15.37;68.06
16461;BME280;8341;42.048;24.650;2023-10-31T01:25:49;97390.06;;;15.42;73.65
16461;BME280;8341;42.048;24.650;2023-10-31T01:28:16;97385.31;;;15.37;71.61
16461;BME280;8341;42.048;24.650;2023-10-31T01:30:44;97382.34;;;15.35;71.93
16461;BME280;8341;42.048;24.650;2023-10-31T01:33:11;97382.81;;;15.33;73.23
16461;BME280;8341;42.048;24.650;2023-10-31T01:35:37;97380.81;;;15.34;73.45
16461;BME280;8341;42.048;24.650;2023-10-31T01:38:04;97374.84;;;15.24;77.73
16461;BME280;8341;42.048;24.650;2023-10-31T01:40:31;97372.09;;;15.13;78.58
16461;BME280;8341;42.048;24.650;2023-10-31T01:42:58;97372.59;;;15.17;76.84
16461;BME280;8341;42.048;24.650;2023-10-31T01:45:24;97367.09;;;15.17;77.09
16461;BME280;8341;42.048;24.650;2023-10-31T01:47:53;97360.09;;;15.16;76.63
16461;BME280;8341;42.048;24.650;2023-10-31T01:50:20;97365.34;;;15.09;77.18
16461;BME280;8341;42.048;24.650;2023-10-31T01:52:46;97359.84;;;15.03;73.57
16461;BME280;8341;42.048;24.650;2023-10-31T01:55:14;97354.34;;;15.03;73.38
16461;BME280;8341;42.048;24.650;2023-10-31T01:57:42;97358.84;;;15.12;73.09
16461;BME280;8341;42.048;24.650;2023-10-31T02:00:12;97360.38;;;15.07;69.02
16461;BME280;8341;42.048;24.650;2023-10-31T02:02:40;97359.09;;;15.02;68.02
16461;BME280;8341;42.048;24.650;2023-10-31T02:05:09;97351.84;;;14.88;68.05
16461;BME280;8341;42.048;24.650;2023-10-31T02:07:36;97352.09;;;14.96;67.12
16461;BME280;8341;42.048;24.650;2023-10-31T02:10:03;97351.59;;;14.92;67.33
16461;BME280;8341;42.048;24.650;2023-10-31T02:12:34;97354.59;;;14.94;68.33
16461;BME280;8341;42.048;24.650;2023-10-31T02:15:01;97352.84;;;14.91;72.47
16461;BME280;8341;42.048;24.650;2023-10-31T02:17:28;97354.09;;;14.95;71.08
16461;BME280;8341;42.048;24.650;2023-10-31T02:19:55;97350.13;;;15.02;68.02
16461;BME280;8341;42.048;24.650;2023-10-31T02:22:23;97356.34;;;15.02;67.61
16461;BME280;8341;42.048;24.650;2023-10-31T02:24:51;97357.63;;;15.07;69.91
16461;BME280;8341;42.048;24.650;2023-10-31T02:27:18;97351.84;;;15.05;69.97
16461;BME280;8341;42.048;24.650;2023-10-31T02:29:45;97361.34;;;15.04;74.08
16461;BME280;8341;42.048;24.650;2023-10-31T02:32:12;97357.09;;;15.03;75.17
16461;BME280;8341;42.048;24.650;2023-10-31T02:34:38;97345.63;;;14.93;74.13
16461;BME280;8341;42.048;24.650;2023-10-31T02:37:05;97360.59;;;14.92;74.25
16461;BME280;8341;42.048;24.650;2023-10-31T02:39:33;97367.06;;;14.95;75.28
16461;BME280;8341;42.048;24.650;2023-10-31T02:42:00;97363.31;;;14.87;76.77
16461;BME280;8341;42.048;24.650;2023-10-31T02:44:27;97364.81;;;14.77;76.60
16461;BME280;8341;42.048;24.650;2023-10-31T02:46:54;97362.06;;;14.66;77.51
16461;BME280;8341;42.048;24.650;2023-10-31T02:49:21;97356.56;;;14.66;76.77
16461;BME280;8341;42.048;24.650;2023-10-31T02:51:47;97359.53;;;14.62;73.77
16461;BME280;8341;42.048;24.650;2023-10-31T02:54:14;97359.47;;;14.34;79.02
16461;BME280;8341;42.048;24.650;2023-10-31T02:56:42;97363.13;;;14.20;81.47
16461;BME280;8341;42.048;24.650;2023-10-31T02:59:09;97364.16;;;14.28;78.54
16461;BME280;8341;42.048;24.650;2023-10-31T03:01:36;97355.41;;;14.24;76.67
16461;BME280;8341;42.048;24.650;2023-10-31T03:04:03;97356.88;;;14.14;77.19
16461;BME280;8341;42.048;24.650;2023-10-31T03:06:29;97350.41;;;14.17;78.94
16461;BME280;8341;42.048;24.650;2023-10-31T03:08:56;97352.94;;;14.26;78.09
16461;BME280;8341;42.048;24.650;2023-10-31T03:11:24;97348.66;;;14.14;79.60
16461;BME280;8341;42.048;24.650;2023-10-31T03:13:52;97350.41;;;14.17;79.34
16461;BME280;8341;42.048;24.650;2023-10-31T03:16:19;97350.09;;;14.10;80.95
16461;BME280;8341;42.048;24.650;2023-10-31T03:18:46;97355.91;;;14.17;80.83
16461;BME280;8341;42.048;24.650;2023-10-31T03:21:13;97353.34;;;14.08;80.39
16461;BME280;8341;42.048;24.650;2023-10-31T03:23:41;97348.88;;;14.11;80.21
16461;BME280;8341;42.048;24.650;2023-10-31T03:26:07;97348.81;;;14.00;80.05
16461;BME280;8341;42.048;24.650;2023-10-31T03:28:34;97353.81;;;14.01;79.51
16461;BME280;8341;42.048;24.650;2023-10-31T03:31:03;97340.38;;;14.03;77.43
16461;BME280;8341;42.048;24.650;2023-10-31T03:33:30;97348.56;;;13.98;77.53
16461;BME280;8341;42.048;24.650;2023-10-31T03:35:57;97356.03;;;13.97;73.15
16461;BME280;8341;42.048;24.650;2023-10-31T03:38:24;97350.56;;;13.97;73.34
16461;BME280;8341;42.048;24.650;2023-10-31T03:40:51;97352.34;;;14.06;73.76
16461;BME280;8341;42.048;24.650;2023-10-31T03:43:18;97357.31;;;14.07;76.53
16461;BME280;8341;42.048;24.650;2023-10-31T03:45:45;97347.56;;;13.47;78.39
16461;BME280;8341;42.048;24.650;2023-10-31T03:48:14;97355.34;;;13.60;75.54
16461;BME280;8341;42.048;24.650;2023-10-31T03:50:40;97355.19;;;13.74;77.41
16461;BME280;8341;42.048;24.650;2023-10-31T03:53:07;97349.41;;;13.67;78.15
16461;BME280;8341;42.048;24.650;2023-10-31T03:55:34;97351.16;;;13.70;78.82
16461;BME280;8341;42.048;24.650;2023-10-31T03:58:01;97353.91;;;13.70;79.57
16461;BME280;8341;42.048;24.650;2023-10-31T04:00:28;97358.13;;;13.65;79.33
16461;BME280;8341;42.048;24.650;2023-10-31T04:02:54;97353.31;;;13.55;80.68
16461;BME280;8341;42.048;24.650;2023-10-31T04:05:23;97353.59;;;13.57;79.95
16461;BME280;8341;42.048;24.650;2023-10-31T04:07:49;97347.25;;;13.40;80.22
16461;BME280;8341;42.048;24.650;2023-10-31T04:10:17;97340.81;;;13.48;80.89
16461;BME280;8341;42.048;24.650;2023-10-31T04:12:44;97343.09;;;13.50;81.23
16461;BME280;8341;42.048;24.650;2023-10-31T04:15:11;97337.78;;;13.41;81.80
16461;BME280;8341;42.048;24.650;2023-10-31T04:17:38;97346.91;;;13.27;84.04
16461;BME280;8341;42.048;24.650;2023-10-31T04:20:06;97346.47;;;13.34;84.69
16461;BME280;8341;42.048;24.650;2023-10-31T04:22:34;97346.72;;;13.36;84.30
16461;BME280;8341;42.048;24.650;2023-10-31T04:25:01;97343.25;;;13.41;84.66
16461;BME280;8341;42.048;24.650;2023-10-31T04:27:28;97331.59;;;13.46;83.89
16461;BME280;8341;42.048;24.650;2023-10-31T04:29:55;97332.63;;;13.54;84.79
16461;BME280;8341;42.048;24.650;2023-10-31T04:32:22;97325.31;;;13.34;82.48
16461;BME280;8341;42.048;24.650;2023-10-31T04:34:49;97330.47;;;13.27;83.30
16461;BME280;8341;42.048;24.650;2023-10-31T04:37:15;97337.53;;;13.39;83.78
16461;BME280;8341;42.048;24.650;2023-10-31T04:39:44;97334.97;;;13.30;82.74
16461;BME280;8341;42.048;24.650;2023-10-31T04:42:10;97328.75;;;13.29;82.74
16461;BME280;8341;42.048;24.650;2023-10-31T04:44:37;97332.75;;;13.34;83.78
16461;BME280;8341;42.048;24.650;2023-10-31T04:47:04;97328.19;;;13.20;83.19
16461;BME280;8341;42.048;24.650;2023-10-31T04:49:34;97324.91;;;13.15;84.18
16461;BME280;8341;42.048;24.650;2023-10-31T04:52:01;97315.94;;;13.09;84.90
16461;BME280;8341;42.048;24.650;2023-10-31T04:54:28;97319.69;;;13.17;86.12
16461;BME280;8341;42.048;24.650;2023-10-31T04:56:56;97326.19;;;12.94;86.10
16461;BME280;8341;42.048;24.650;2023-10-31T04:59:23;97328.75;;;12.72;87.09
16461;BME280;8341;42.048;24.650;2023-10-31T05:01:50;97313.75;;;12.36;89.77
16461;BME280;8341;42.048;24.650;2023-10-31T05:04:17;97322.28;;;12.70;88.52
16461;BME280;8341;42.048;24.650;2023-10-31T05:06:44;97316.16;;;12.80;87.09
16461;BME280;8341;42.048;24.650;2023-10-31T05:09:11;97315.69;;;12.87;85.21
16461;BME280;8341;42.048;24.650;2023-10-31T05:11:38;97317.22;;;12.88;86.35
16461;BME280;8341;42.048;24.650;2023-10-31T05:14:07;97317.16;;;12.83;85.62
16461;BME280;8341;42.048;24.650;2023-10-31T05:16:39;97313.22;;;12.89;84.15
16461;BME280;8341;42.048;24.650;2023-10-31T05:19:06;97311.44;;;12.81;85.29
16461;BME280;8341;42.048;24.650;2023-10-31T05:21:33;97320.16;;;12.85;84.60
16461;BME280;8341;42.048;24.650;2023-10-31T05:23:59;97321.50;;;12.95;82.51
16461;BME280;8341;42.048;24.650;2023-10-31T05:26:26;97322.78;;;12.48;84.27
16461;BME280;8341;42.048;24.650;2023-10-31T05:28:54;97322.06;;;12.73;83.60
16461;BME280;8341;42.048;24.650;2023-10-31T05:31:23;97328.63;;;12.87;83.43
16461;BME280;8341;42.048;24.650;2023-10-31T05:33:50;97333.13;;;12.90;84.20
16461;BME280;8341;42.048;24.650;2023-10-31T05:36:18;97342.41;;;12.98;84.79
16461;BME280;8341;42.048;24.650;2023-10-31T05:38:45;97348.03;;;13.09;84.19
16461;BME280;8341;42.048;24.650;2023-10-31T05:41:12;97347.06;;;13.17;84.58
16461;BME280;8341;42.048;24.650;2023-10-31T05:43:38;97344.34;;;13.17;84.23
16461;BME280;8341;42.048;24.650;2023-10-31T05:46:05;97355.84;;;13.22;84.89
16461;BME280;8341;42.048;24.650;2023-10-31T05:48:37;97358.38;;;13.31;84.29
16461;BME280;8341;42.048;24.650;2023-10-31T05:51:04;97357.81;;;13.21;84.43
16461;BME280;8341;42.048;24.650;2023-10-31T05:53:31;97364.41;;;13.35;84.47
16461;BME280;8341;42.048;24.650;2023-10-31T05:55:59;97360.75;;;13.49;84.23
16461;BME280;8341;42.048;24.650;2023-10-31T05:58:25;97358.09;;;13.60;84.29
16461;BME280;8341;42.048;24.650;2023-10-31T06:00:52;97353.16;;;13.69;83.21
16461;BME280;8341;42.048;24.650;2023-10-31T06:03:19;97363.69;;;13.82;83.51
16461;BME280;8341;42.048;24.650;2023-10-31T06:05:47;97370.09;;;13.68;81.56
16461;BME280;8341;42.048;24.650;2023-10-31T06:08:14;97370.13;;;13.73;80.55
16461;BME280;8341;42.048;24.650;2023-10-31T06:10:41;97367.16;;;13.77;78.81
16461;BME280;8341;42.048;24.650;2023-10-31T06:13:08;97369.72;;;13.86;76.63
16461;BME280;8341;42.048;24.650;2023-10-31T06:15:34;97373.00;;;13.96;76.29
16461;BME280;8341;42.048;24.650;2023-10-31T06:18:01;97374.06;;;14.09;74.54
16461;BME280;8341;42.048;24.650;2023-10-31T06:20:28;97363.84;;;14.15;74.28
16461;BME280;8341;42.048;24.650;2023-10-31T06:22:56;97366.13;;;14.22;74.79
16461;BME280;8341;42.048;24.650;2023-10-31T06:25:24;97362.47;;;14.36;73.84
16461;BME280;8341;42.048;24.650;2023-10-31T06:27:51;97371.94;;;14.35;72.94
16461;BME280;8341;42.048;24.650;2023-10-31T06:30:18;97369.38;;;14.26;72.05
16461;BME280;8341;42.048;24.650;2023-10-31T06:32:45;97377.59;;;14.21;72.06
16461;BME280;8341;42.048;24.650;2023-10-31T06:35:12;97378.69;;;13.87;74.82
16461;BME280;8341;42.048;24.650;2023-10-31T06:37:38;97382.69;;;13.91;75.74
16461;BME280;8341;42.048;24.650;2023-10-31T06:40:08;97387.16;;;13.89;76.74
16461;BME280;8341;42.048;24.650;2023-10-31T06:42:35;97373.94;;;13.87;77.22
16461;BME280;8341;42.048;24.650;2023-10-31T06:45:02;97384.84;;;14.24;76.84
16461;BME280;8341;42.048;24.650;2023-10-31T06:47:30;97380.44;;;14.37;76.05
16461;BME280;8341;42.048;24.650;2023-10-31T06:49:56;97373.44;;;14.36;74.70
16461;BME280;8341;42.048;24.650;2023-10-31T06:52:23;97377.78;;;14.65;75.01
16461;BME280;8341;42.048;24.650;2023-10-31T06:54:50;97376.03;;;14.84;74.34
16461;BME280;8341;42.048;24.650;2023-10-31T06:57:18;97375.09;;;15.04;73.49
16461;BME280;8341;42.048;24.650;2023-10-31T06:59:45;97374.59;;;15.11;72.93
16461;BME280;8341;42.048;24.650;2023-10-31T07:02:12;97380.09;;;15.17;72.82
16461;BME280;8341;42.048;24.650;2023-10-31T07:04:39;97368.34;;;15.05;73.30
16461;BME280;8341;42.048;24.650;2023-10-31T07:07:06;97373.06;;;15.10;72.61
16461;BME280;8341;42.048;24.650;2023-10-31T07:09:33;97371.84;;;15.17;71.60
16461;BME280;8341;42.048;24.650;2023-10-31T07:12:00;97369.09;;;15.33;71.97
16461;BME280;8341;42.048;24.650;2023-10-31T07:14:28;97376.09;;;15.56;72.50
16461;BME280;8341;42.048;24.650;2023-10-31T07:16:56;97358.34;;;15.63;73.08
16461;BME280;8341;42.048;24.650;2023-10-31T07:19:22;97366.06;;;15.81;72.29
16461;BME280;8341;42.048;24.650;2023-10-31T07:21:49;97369.75;;;15.95;72.45
16461;BME280;8341;42.048;24.650;2023-10-31T07:24:16;97365.22;;;16.08;71.72
16461;BME280;8341;42.048;24.650;2023-10-31T07:26:43;97371.91;;;16.24;71.42
16461;BME280;8341;42.048;24.650;2023-10-31T07:29:09;97373.13;;;16.34;70.53
16461;BME280;8341;42.048;24.650;2023-10-31T07:31:38;97369.47;;;16.15;67.81
16461;BME280;8341;42.048;24.650;2023-10-31T07:34:05;97360.22;;;16.07;68.38
16461;BME280;8341;42.048;24.650;2023-10-31T07:36:32;97367.16;;;16.24;66.54
16461;BME280;8341;42.048;24.650;2023-10-31T07:39:00;97362.22;;;16.06;63.50
16461;BME280;8341;42.048;24.650;2023-10-31T07:41:27;97363.63;;;16.29;65.29
16461;BME280;8341;42.048;24.650;2023-10-31T07:43:54;97354.16;;;16.31;63.72
16461;BME280;8341;42.048;24.650;2023-10-31T07:46:20;97338.50;;;16.50;64.08
16461;BME280;8341;42.048;24.650;2023-10-31T07:48:50;97342.13;;;16.74;66.56
16461;BME280;8341;42.048;24.650;2023-10-31T07:51:19;97336.53;;;16.56;64.09
16461;BME280;8341;42.048;24.650;2023-10-31T07:53:45;97334.59;;;16.34;61.56
16461;BME280;8341;42.048;24.650;2023-10-31T07:56:17;97343.34;;;16.38;61.82
16461;BME280;8341;42.048;24.650;2023-10-31T07:58:48;97325.31;;;16.37;61.32
16461;BME280;8341;42.048;24.650;2023-10-31T08:01:15;97323.75;;;16.58;63.58
16461;BME280;8341;42.048;24.650;2023-10-31T08:03:43;97324.78;;;16.44;68.60
16461;BME280;8341;42.048;24.650;2023-10-31T08:06:11;97319.63;;;16.24;69.50
16461;BME280;8341;42.048;24.650;2023-10-31T08:08:38;97313.34;;;16.29;69.78
16461;BME280;8341;42.048;24.650;2023-10-31T08:11:07;97307.47;;;16.55;68.77
16461;BME280;8341;42.048;24.650;2023-10-31T08:13:35;97301.38;;;16.67;69.34
16461;BME280;8341;42.048;24.650;2023-10-31T08:16:02;97295.09;;;16.72;68.90
16461;BME280;8341;42.048;24.650;2023-10-31T08:18:29;97289.13;;;16.68;68.84
16461;BME280;8341;42.048;24.650;2023-10-31T08:20:56;97289.88;;;16.69;69.92
16461;BME280;8341;42.048;24.650;2023-10-31T08:23:24;97285.03;;;16.80;69.60
16461;BME280;8341;42.048;24.650;2023-10-31T08:25:52;97293.50;;;16.82;69.54
16461;BME280;8341;42.048;24.650;2023-10-31T08:28:18;97287.41;;;16.95;68.53
16461;BME280;8341;42.048;24.650;2023-10-31T08:30:45;97284.75;;;17.14;67.29
16461;BME280;8341;42.048;24.650;2023-10-31T08:33:12;97295.84;;;17.32;66.79
16461;BME280;8341;42.048;24.650;2023-10-31T08:35:39;97295.50;;;17.17;67.80
16461;BME280;8341;42.048;24.650;2023-10-31T08:38:06;97293.72;;;17.20;67.77
16461;BME280;8341;42.048;24.650;2023-10-31T08:40:35;97309.47;;;17.25;67.42
16461;BME280;8341;42.048;24.650;2023-10-31T08:43:01;97307.19;;;17.23;67.13
16461;BME280;8341;42.048;24.650;2023-10-31T08:45:29;97318.31;;;17.18;67.16
16461;BME280;8341;42.048;24.650;2023-10-31T08:47:56;97318.53;;;17.44;67.35
16461;BME280;8341;42.048;24.650;2023-10-31T08:50:23;97317.50;;;17.47;67.52
16461;BME280;8341;42.048;24.650;2023-10-31T08:52:50;97312.22;;;17.49;67.96
16461;BME280;8341;42.048;24.650;2023-10-31T08:55:17;97306.59;;;17.36;68.11
16461;BME280;8341;42.048;24.650;2023-10-31T08:57:45;97308.31;;;17.39;68.80
16461;BME280;8341;42.048;24.650;2023-10-31T09:00:12;97301.13;;;17.60;67.56
16461;BME280;8341;42.048;24.650;2023-10-31T09:02:39;97298.91;;;17.77;66.60
16461;BME280;8341;42.048;24.650;2023-10-31T09:05:07;97287.06;;;17.82;65.95
16461;BME280;8341;42.048;24.650;2023-10-31T09:07:33;97271.09;;;17.75;66.22
16461;BME280;8341;42.048;24.650;2023-10-31T09:10:00;97260.63;;;17.92;64.95
16461;BME280;8341;42.048;24.650;2023-10-31T09:12:28;97259.22;;;18.04;64.90
16461;BME280;8341;42.048;24.650;2023-10-31T09:14:56;97249.34;;;17.90;65.65
16461;BME280;8341;42.048;24.650;2023-10-31T09:17:23;97228.78;;;17.91;65.16
16461;BME280;8341;42.048;24.650;2023-10-31T09:19:50;97228.03;;;18.09;64.50
16461;BME280;8341;42.048;24.650;2023-10-31T09:22:16;97220.59;;;18.23;63.23
16461;BME280;8341;42.048;24.650;2023-10-31T09:24:43;97209.38;;;18.15;64.30
16461;BME280;8341;42.048;24.650;2023-10-31T09:27:10;97207.97;;;18.09;63.97
16461;BME280;8341;42.048;24.650;2023-10-31T09:29:36;97207.97;;;18.28;64.07
16461;BME280;8341;42.048;24.650;2023-10-31T09:32:06;97210.88;;;18.17;64.15
16461;BME280;8341;42.048;24.650;2023-10-31T09:34:33;97209.16;;;18.13;64.50
16461;BME280;8341;42.048;24.650;2023-10-31T09:37:00;97214.31;;;18.23;64.04
16461;BME280;8341;42.048;24.650;2023-10-31T09:39:26;97206.00;;;18.41;63.32
16461;BME280;8341;42.048;24.650;2023-10-31T09:41:54;97207.28;;;18.59;62.48
16461;BME280;8341;42.048;24.650;2023-10-31T09:44:21;97207.47;;;18.61;61.79
16461;BME280;8341;42.048;24.650;2023-10-31T09:46:49;97209.75;;;18.75;61.13
16461;BME280;8341;42.048;24.650;2023-10-31T09:49:17;97212.53;;;18.89;60.48
16461;BME280;8341;42.048;24.650;2023-10-31T09:51:46;97195.22;;;18.88;59.95
16461;BME280;8341;42.048;24.650;2023-10-31T09:54:14;97190.78;;;19.11;59.02
16461;BME280;8341;42.048;24.650;2023-10-31T09:56:42;97188.22;;;19.13;58.39
16461;BME280;8341;42.048;24.650;2023-10-31T09:59:09;97177.63;;;19.17;58.88
16461;BME280;8341;42.048;24.650;2023-10-31T10:01:36;97172.28;;;19.32;57.98
16461;BME280;8341;42.048;24.650;2023-10-31T10:04:03;97166.44;;;19.23;57.87
16461;BME280;8341;42.048;24.650;2023-10-31T10:06:32;97169.56;;;19.46;57.71
16461;BME280;8341;42.048;24.650;2023-10-31T10:08:59;97170.16;;;19.65;57.26
16461;BME280;8341;42.048;24.650;2023-10-31T10:11:29;97157.28;;;19.54;57.32
16461;BME280;8341;42.048;24.650;2023-10-31T10:13:57;97153.56;;;19.65;57.46
16461;BME280;8341;42.048;24.650;2023-10-31T10:16:31;97142.75;;;19.54;56.52
16461;BME280;8341;42.048;24.650;2023-10-31T10:19:14;97135.78;;;19.60;56.91
16461;BME280;8341;42.048;24.650;2023-10-31T10:21:48;97127.00;;;19.82;56.55
16461;BME280;8341;42.048;24.650;2023-10-31T10:24:15;97137.38;;;19.69;56.18
16461;BME280;8341;42.048;24.650;2023-10-31T10:26:42;97119.13;;;19.86;56.17
16461;BME280;8341;42.048;24.650;2023-10-31T10:29:09;97123.69;;;19.97;55.57
16461;BME280;8341;42.048;24.650;2023-10-31T10:31:36;97123.59;;;19.89;56.29
16461;BME280;8341;42.048;24.650;2023-10-31T10:34:03;97126.72;;;20.07;55.90
16461;BME280;8341;42.048;24.650;2023-10-31T10:36:31;97107.63;;;20.16;55.63
16461;BME280;8341;42.048;24.650;2023-10-31T10:39:00;97108.00;;;20.33;55.42
16461;BME280;8341;42.048;24.650;2023-10-31T10:41:29;97119.97;;;20.28;54.68
16461;BME280;8341;42.048;24.650;2023-10-31T10:43:56;97116.31;;;20.33;54.73
16461;BME280;8341;42.048;24.650;2023-10-31T10:46:24;97113.91;;;20.58;54.23
16461;BME280;8341;42.048;24.650;2023-10-31T10:48:55;97112.84;;;20.61;53.17
16461;BME280;8341;42.048;24.650;2023-10-31T10:51:26;97115.28;;;20.65;53.11
16461;BME280;8341;42.048;24.650;2023-10-31T10:53:57;97096.75;;;20.59;53.56
16461;BME280;8341;42.048;24.650;2023-10-31T10:56:30;97091.81;;;20.94;53.07
16461;BME280;8341;42.048;24.650;2023-10-31T10:59:03;97092.84;;;20.83;52.96
16461;BME280;8341;42.048;24.650;2023-10-31T11:01:34;97092.25;;;20.49;53.21
16461;BME280;8341;42.048;24.650;2023-10-31T11:04:02;97082.47;;;20.76;53.94
16461;BME280;8341;42.048;24.650;2023-10-31T11:06:29;97081.31;;;21.00;53.19
16461;BME280;8341;42.048;24.650;2023-10-31T11:08:57;97073.66;;;21.13;52.38
16461;BME280;8341;42.048;24.650;2023-10-31T11:11:26;97071.44;;;21.12;52.04
16461;BME280;8341;42.048;24.650;2023-10-31T11:13:55;97067.44;;;21.28;52.10
16461;BME280;8341;42.048;24.650;2023-10-31T11:16:30;97071.00;;;21.36;51.19
16461;BME280;8341;42.048;24.650;2023-10-31T11:19:00;97071.38;;;21.40;50.81
16461;BME280;8341;42.048;24.650;2023-10-31T11:21:28;97058.88;;;21.18;52.04
16461;BME280;8341;42.048;24.650;2023-10-31T11:23:58;97060.41;;;21.27;52.18
16461;BME280;8341;42.048;24.650;2023-10-31T11:26:27;97053.97;;;21.40;52.26
16461;BME280;8341;42.048;24.650;2023-10-31T11:29:03;97049.38;;;21.50;51.95
16461;BME280;8341;42.048;24.650;2023-10-31T11:31:30;97039.44;;;21.62;51.37
16461;BME280;8341;42.048;24.650;2023-10-31T11:33:57;97030.03;;;21.72;51.01
16461;BME280;8341;42.048;24.650;2023-10-31T11:36:24;97031.53;;;21.81;50.93
16461;BME280;8341;42.048;24.650;2023-10-31T11:39:09;97033.53;;;21.65;50.85
16461;BME280;8341;42.048;24.650;2023-10-31T11:41:39;97029.78;;;21.48;52.00
16461;BME280;8341;42.048;24.650;2023-10-31T11:44:06;97020.06;;;21.77;51.82
16461;BME280;8341;42.048;24.650;2023-10-31T11:46:33;97009.53;;;21.91;51.56
16461;BME280;8341;42.048;24.650;2023-10-31T11:49:00;97014.91;;;21.89;51.57
16461;BME280;8341;42.048;24.650;2023-10-31T11:51:27;97002.16;;;22.01;51.06
16461;BME280;8341;42.048;24.650;2023-10-31T11:53:54;97009.56;;;22.28;50.96
16461;BME280;8341;42.048;24.650;2023-10-31T11:56:22;97005.28;;;22.35;50.94
16461;BME280;8341;42.048;24.650;2023-10-31T11:58:58;96998.78;;;22.40;50.74
16461;BME280;8341;42.048;24.650;2023-10-31T12:01:25;96994.75;;;22.33;49.30
16461;BME280;8341;42.048;24.650;2023-10-31T12:03:52;96984.53;;;21.91;50.87
16461;BME280;8341;42.048;24.650;2023-10-31T12:06:18;96992.88;;;22.28;50.64
16461;BME280;8341;42.048;24.650;2023-10-31T12:08:48;96976.97;;;22.06;51.25
16461;BME280;8341;42.048;24.650;2023-10-31T12:11:16;96978.28;;;22.13;50.71
16461;BME280;8341;42.048;24.650;2023-10-31T12:13:52;96965.84;;;22.06;50.09
16461;BME280;8341;42.048;24.650;2023-10-31T12:16:23;96973.25;;;22.19;50.59
16461;BME280;8341;42.048;24.650;2023-10-31T12:18:54;96957.72;;;22.01;51.28
16461;BME280;8341;42.048;24.650;2023-10-31T12:21:34;96959.38;;;22.04;51.25
16461;BME280;8341;42.048;24.650;2023-10-31T12:24:05;96948.25;;;22.04;51.04
16461;BME280;8341;42.048;24.650;2023-10-31T12:26:32;96946.59;;;22.31;50.97
16461;BME280;8341;42.048;24.650;2023-10-31T12:29:10;96946.75;;;22.40;51.19
16461;BME280;8341;42.048;24.650;2023-10-31T12:31:42;96944.16;;;22.35;49.61
16461;BME280;8341;42.048;24.650;2023-10-31T12:34:10;96939.38;;;22.20;50.10
16461;BME280;8341;42.048;24.650;2023-10-31T12:36:38;96936.22;;;22.39;49.79
16461;BME280;8341;42.048;24.650;2023-10-31T12:39:07;96938.25;;;22.31;49.64
16461;BME280;8341;42.048;24.650;2023-10-31T12:41:37;96936.03;;;22.29;49.72
16461;BME280;8341;42.048;24.650;2023-10-31T12:44:05;96938.47;;;22.18;49.70
16461;BME280;8341;42.048;24.650;2023-10-31T12:46:33;96937.50;;;22.30;49.20
16461;BME280;8341;42.048;24.650;2023-10-31T12:49:02;96947.72;;;22.05;49.81
16461;BME280;8341;42.048;24.650;2023-10-31T12:51:28;96944.75;;;21.96;50.91
16461;BME280;8341;42.048;24.650;2023-10-31T12:53:55;96935.50;;;22.16;51.04
16461;BME280;8341;42.048;24.650;2023-10-31T12:56:36;96934.22;;;21.94;50.66
16461;BME280;8341;42.048;24.650;2023-10-31T12:59:05;96926.25;;;21.91;50.92
16461;BME280;8341;42.048;24.650;2023-10-31T13:01:33;96924.41;;;22.01;50.79